Terminal Aerodrome Forecast
Issued by NWS Huntsville, AL

Home | Current Version | Previous Version | Text Only | Print | Product List | Glossary On
Versions: 1 2 3 4 5 6 7 8 9 10 11 12 13
000
FTUS44 KHUN 261720
TAFHSV
TAF
KHSV 261720Z 2618/2718 12008KT P6SM SCT250
     FM270100 12005KT P6SM BKN200
     FM270600 10005KT P6SM BKN090
     FM271500 13010KT P6SM -RA OVC050=

USA.gov is the U.S. government's official web portal to all federal, state and local government web resources and services.